Impacts TAF Board
For situational awareness. Not to be used for flight planning purposes.
IDs:

KMSY - New Orleans/Armstron, LA, US

Issued at 0521 UTC 01 Dec 2022
Updated at 0758 UTC 01 Dec 2022
Potential Impact None Slight Moderate High
Time0753Z 01/08Z 01/09Z 01/10Z 01/11Z 01/12Z 01/13Z 01/14Z 01/15Z 01/16Z 01/17Z 01/18Z 01/19Z 01/20Z>>
Type OBS PRVL PRVL PRVL PRVL PRVL PRVL PRVL PRVL PRVL PRVL PRVL PRVL PRVL
VIS 10 >6 >6 >6 >6 >6 >6 >6 >6 >6 >6 >6 >6 >6
CIG -- -- -- -- -- -- -- -- -- -- -- -- -- --
Cover FEW SKC SKC SKC SKC SKC SKC SKC FEW FEW FEW FEW FEW FEW
FltCat VFR VFR VFR VFR VFR VFR VFR VFR VFR VFR VFR VFR VFR VFR
WX -- -- -- -- -- -- -- -- -- -- -- -- -- --
WDir 40 40 40 40 40 40 40 40 70 70 70 70 70 70
WSpd 10 15 15 15 15 15 15 15 14 14 14 14 14 14
WGst 19 25 25 25 25 25 25 25 22 22 22 22 22 22
WSHgt -- -- -- -- -- -- -- -- -- -- -- -- -- --
WSDir -- -- -- -- -- -- -- -- -- -- -- -- -- --
WSSpd -- -- -- -- -- -- -- -- -- -- -- -- -- --
R02/20
XWnd -4 -6 -6 -6 -6 -6 -6 -6 -11 -11 -11 -11 -11 -11
XGst -8 -11 -11 -11 -11 -11 -11 -11 -18 -18 -18 -18 -18 -18
HWnd 9 14 14 14 14 14 14 14 8 8 8 8 8 8
HGst 17 23 23 23 23 23 23 23 13 13 13 13 13 13
R11/29
XWnd 9 14 14 14 14 14 14 14 8 8 8 8 8 8
XGst 17 23 23 23 23 23 23 23 13 13 13 13 13 13
HWnd 4 6 6 6 6 6 6 6 11 11 11 11 11 11
HGst 8 11 11 11 11 11 11 11 18 18 18 18 18 18
Raw TAF
KMSY 010521Z 0106/0212 04015G25KT P6SM SKC
  FM011500 07014G22KT P6SM FEW250
  FM012300 08007KT P6SM SKC


Raw METAR
KMSY 010753Z 04010G19KT 10SM FEW250 09/01 A3035 RMK AO2 SLP280 T00940006
KMSY 010653Z 03013G20KT 10SM FEW250 10/01 A3035 RMK AO2 SLP280 T01000006
KMSY 010553Z 03013G20KT 10SM FEW250 11/01 A3035 RMK AO2 SLP279 T01060006 10161 20106 402500106 51005
KMSY 010453Z 03015G23KT 10SM FEW250 11/01 A3034 RMK AO2 PK WND 03028/0442 SLP277 T01110011

METAR Board
Radar Display
Forecast Discussion
For situational awareness. Not to be used for flight planning purposes.